sensor_id;sensor_type;location;lat;lon;timestamp;temperature;humidity
38456;DHT22;24237;50.106;20.014;2023-06-24T00:01:15;22.60;99.90
38456;DHT22;24237;50.106;20.014;2023-06-24T00:03:40;22.50;99.90
38456;DHT22;24237;50.106;20.014;2023-06-24T00:06:12;22.40;99.90
38456;DHT22;24237;50.106;20.014;2023-06-24T00:08:46;22.40;99.90
38456;DHT22;24237;50.106;20.014;2023-06-24T00:11:12;22.30;99.90
38456;DHT22;24237;50.106;20.014;2023-06-24T00:13:39;22.30;99.90
38456;DHT22;24237;50.106;20.014;2023-06-24T00:16:05;22.40;99.90
38456;DHT22;24237;50.106;20.014;2023-06-24T00:18:32;22.50;99.90
38456;DHT22;24237;50.106;20.014;2023-06-24T00:20:58;22.40;99.90
38456;DHT22;24237;50.106;20.014;2023-06-24T00:23:24;22.40;99.90
38456;DHT22;24237;50.106;20.014;2023-06-24T00:25:53;22.30;99.90
38456;DHT22;24237;50.106;20.014;2023-06-24T00:28:19;22.50;99.90
38456;DHT22;24237;50.106;20.014;2023-06-24T00:30:46;22.50;99.90
38456;DHT22;24237;50.106;20.014;2023-06-24T00:33:12;22.50;99.90
38456;DHT22;24237;50.106;20.014;2023-06-24T00:35:42;22.40;99.90
38456;DHT22;24237;50.106;20.014;2023-06-24T00:38:08;22.40;99.90
38456;DHT22;24237;50.106;20.014;2023-06-24T00:40:34;22.40;99.90
38456;DHT22;24237;50.106;20.014;2023-06-24T00:43:00;22.40;99.90
38456;DHT22;24237;50.106;20.014;2023-06-24T00:45:28;22.30;99.90
38456;DHT22;24237;50.106;20.014;2023-06-24T00:47:55;22.30;99.90
38456;DHT22;24237;50.106;20.014;2023-06-24T00:50:22;22.30;99.90
38456;DHT22;24237;50.106;20.014;2023-06-24T00:52:47;22.40;99.90
38456;DHT22;24237;50.106;20.014;2023-06-24T00:55:16;22.30;99.90
38456;DHT22;24237;50.106;20.014;2023-06-24T00:57:47;22.30;99.90
38456;DHT22;24237;50.106;20.014;2023-06-24T01:00:16;22.40;99.90
38456;DHT22;24237;50.106;20.014;2023-06-24T01:02:44;22.30;99.90
38456;DHT22;24237;50.106;20.014;2023-06-24T01:05:10;22.30;99.90
38456;DHT22;24237;50.106;20.014;2023-06-24T01:07:40;22.30;99.90
38456;DHT22;24237;50.106;20.014;2023-06-24T01:10:06;22.30;99.90
38456;DHT22;24237;50.106;20.014;2023-06-24T01:12:33;22.30;99.90
38456;DHT22;24237;50.106;20.014;2023-06-24T01:15:00;22.20;99.90
38456;DHT22;24237;50.106;20.014;2023-06-24T01:23:11;22.20;99.90
38456;DHT22;24237;50.106;20.014;2023-06-24T01:26:06;22.10;99.90
38456;DHT22;24237;50.106;20.014;2023-06-24T01:28:58;22.00;99.90
38456;DHT22;24237;50.106;20.014;2023-06-24T01:36:34;22.30;99.90
38456;DHT22;24237;50.106;20.014;2023-06-24T01:39:04;22.10;99.90
38456;DHT22;24237;50.106;20.014;2023-06-24T01:41:40;22.00;99.90
38456;DHT22;24237;50.106;20.014;2023-06-24T01:44:09;22.00;99.90
38456;DHT22;24237;50.106;20.014;2023-06-24T01:46:36;22.00;99.90
38456;DHT22;24237;50.106;20.014;2023-06-24T01:49:04;21.90;99.90
38456;DHT22;24237;50.106;20.014;2023-06-24T01:51:32;22.00;99.90
38456;DHT22;24237;50.106;20.014;2023-06-24T01:54:04;21.80;99.90
38456;DHT22;24237;50.106;20.014;2023-06-24T01:56:32;21.90;99.90
38456;DHT22;24237;50.106;20.014;2023-06-24T01:59:01;22.00;99.90
38456;DHT22;24237;50.106;20.014;2023-06-24T02:01:29;21.70;99.90
38456;DHT22;24237;50.106;20.014;2023-06-24T02:03:57;21.70;99.90
38456;DHT22;24237;50.106;20.014;2023-06-24T02:06:24;21.90;99.90
38456;DHT22;24237;50.106;20.014;2023-06-24T02:08:53;21.80;99.90
38456;DHT22;24237;50.106;20.014;2023-06-24T02:11:20;21.80;99.90
38456;DHT22;24237;50.106;20.014;2023-06-24T02:13:47;22.00;99.90
38456;DHT22;24237;50.106;20.014;2023-06-24T02:16:13;22.00;99.90
38456;DHT22;24237;50.106;20.014;2023-06-24T02:18:40;21.80;99.90
38456;DHT22;24237;50.106;20.014;2023-06-24T02:21:09;21.80;99.90
38456;DHT22;24237;50.106;20.014;2023-06-24T02:23:36;22.00;99.90
38456;DHT22;24237;50.106;20.014;2023-06-24T02:26:03;21.90;99.90
38456;DHT22;24237;50.106;20.014;2023-06-24T02:28:32;22.00;99.90
38456;DHT22;24237;50.106;20.014;2023-06-24T02:30:59;21.90;99.90
38456;DHT22;24237;50.106;20.014;2023-06-24T02:33:25;21.90;99.90
38456;DHT22;24237;50.106;20.014;2023-06-24T02:35:52;21.80;99.90
38456;DHT22;24237;50.106;20.014;2023-06-24T02:38:18;21.70;99.90
38456;DHT22;24237;50.106;20.014;2023-06-24T02:40:45;21.70;99.90
38456;DHT22;24237;50.106;20.014;2023-06-24T02:43:11;21.70;99.90
38456;DHT22;24237;50.106;20.014;2023-06-24T02:45:38;21.80;99.90
38456;DHT22;24237;50.106;20.014;2023-06-24T02:48:05;21.70;99.90
38456;DHT22;24237;50.106;20.014;2023-06-24T02:50:31;21.70;99.90
38456;DHT22;24237;50.106;20.014;2023-06-24T02:52:57;21.80;99.90
38456;DHT22;24237;50.106;20.014;2023-06-24T02:55:24;21.90;99.90
38456;DHT22;24237;50.106;20.014;2023-06-24T02:57:50;22.00;99.90
38456;DHT22;24237;50.106;20.014;2023-06-24T03:00:16;22.00;99.90
38456;DHT22;24237;50.106;20.014;2023-06-24T03:02:43;22.00;99.90
38456;DHT22;24237;50.106;20.014;2023-06-24T03:05:10;22.00;99.90
38456;DHT22;24237;50.106;20.014;2023-06-24T03:07:37;21.90;99.90
38456;DHT22;24237;50.106;20.014;2023-06-24T03:10:03;21.90;99.90
38456;DHT22;24237;50.106;20.014;2023-06-24T03:12:30;22.10;99.90
38456;DHT22;24237;50.106;20.014;2023-06-24T03:14:56;22.00;99.90
38456;DHT22;24237;50.106;20.014;2023-06-24T03:17:21;22.00;99.90
38456;DHT22;24237;50.106;20.014;2023-06-24T03:19:47;22.00;99.90
38456;DHT22;24237;50.106;20.014;2023-06-24T03:22:13;21.90;99.90
38456;DHT22;24237;50.106;20.014;2023-06-24T03:24:39;22.10;99.90
38456;DHT22;24237;50.106;20.014;2023-06-24T03:27:04;21.90;99.90
38456;DHT22;24237;50.106;20.014;2023-06-24T03:29:30;21.80;99.90
38456;DHT22;24237;50.106;20.014;2023-06-24T03:31:55;21.80;99.90
38456;DHT22;24237;50.106;20.014;2023-06-24T03:34:21;21.70;99.90
38456;DHT22;24237;50.106;20.014;2023-06-24T03:36:47;21.80;99.90
38456;DHT22;24237;50.106;20.014;2023-06-24T03:39:12;21.80;99.90
38456;DHT22;24237;50.106;20.014;2023-06-24T03:41:38;21.80;99.90
38456;DHT22;24237;50.106;20.014;2023-06-24T03:44:04;21.80;99.90
38456;DHT22;24237;50.106;20.014;2023-06-24T03:46:30;21.80;99.90
38456;DHT22;24237;50.106;20.014;2023-06-24T03:48:58;22.10;99.90
38456;DHT22;24237;50.106;20.014;2023-06-24T03:51:25;21.90;99.90
38456;DHT22;24237;50.106;20.014;2023-06-24T03:53:51;22.00;99.90
38456;DHT22;24237;50.106;20.014;2023-06-24T03:56:17;22.10;99.90
38456;DHT22;24237;50.106;20.014;2023-06-24T03:58:43;22.10;99.90
38456;DHT22;24237;50.106;20.014;2023-06-24T04:01:09;22.20;99.90
38456;DHT22;24237;50.106;20.014;2023-06-24T04:03:35;22.00;99.90
38456;DHT22;24237;50.106;20.014;2023-06-24T04:06:00;22.00;99.90
38456;DHT22;24237;50.106;20.014;2023-06-24T04:08:29;22.20;99.90
38456;DHT22;24237;50.106;20.014;2023-06-24T04:10:55;22.10;99.90
38456;DHT22;24237;50.106;20.014;2023-06-24T04:13:21;22.30;99.90
38456;DHT22;24237;50.106;20.014;2023-06-24T04:15:46;22.10;99.90
38456;DHT22;24237;50.106;20.014;2023-06-24T04:18:12;22.00;99.90
38456;DHT22;24237;50.106;20.014;2023-06-24T04:20:37;22.00;99.90
38456;DHT22;24237;50.106;20.014;2023-06-24T04:23:04;22.00;99.90
38456;DHT22;24237;50.106;20.014;2023-06-24T04:25:31;21.90;99.90
38456;DHT22;24237;50.106;20.014;2023-06-24T04:27:56;21.80;99.90
38456;DHT22;24237;50.106;20.014;2023-06-24T04:30:22;22.00;99.90
38456;DHT22;24237;50.106;20.014;2023-06-24T04:32:48;22.00;99.90
38456;DHT22;24237;50.106;20.014;2023-06-24T04:35:13;21.90;99.90
38456;DHT22;24237;50.106;20.014;2023-06-24T04:37:39;21.90;99.90
38456;DHT22;24237;50.106;20.014;2023-06-24T04:40:05;22.10;99.90
38456;DHT22;24237;50.106;20.014;2023-06-24T04:42:31;22.10;99.90
38456;DHT22;24237;50.106;20.014;2023-06-24T04:44:57;22.20;99.90
38456;DHT22;24237;50.106;20.014;2023-06-24T04:47:22;22.00;99.90
38456;DHT22;24237;50.106;20.014;2023-06-24T04:49:48;22.00;99.90
38456;DHT22;24237;50.106;20.014;2023-06-24T04:52:14;22.00;99.90
38456;DHT22;24237;50.106;20.014;2023-06-24T04:54:40;22.00;99.90
38456;DHT22;24237;50.106;20.014;2023-06-24T04:57:09;22.00;99.90
38456;DHT22;24237;50.106;20.014;2023-06-24T04:59:35;21.90;99.90
38456;DHT22;24237;50.106;20.014;2023-06-24T05:02:01;21.70;99.90
38456;DHT22;24237;50.106;20.014;2023-06-24T05:04:27;21.70;99.90
38456;DHT22;24237;50.106;20.014;2023-06-24T05:06:52;21.70;99.90
38456;DHT22;24237;50.106;20.014;2023-06-24T05:09:18;21.70;99.90
38456;DHT22;24237;50.106;20.014;2023-06-24T05:11:44;21.70;99.90
38456;DHT22;24237;50.106;20.014;2023-06-24T05:14:09;21.60;99.90
38456;DHT22;24237;50.106;20.014;2023-06-24T05:16:35;21.40;99.90
38456;DHT22;24237;50.106;20.014;2023-06-24T05:19:01;21.40;99.90
38456;DHT22;24237;50.106;20.014;2023-06-24T05:21:26;21.40;99.90
38456;DHT22;24237;50.106;20.014;2023-06-24T05:23:52;21.40;99.90
38456;DHT22;24237;50.106;20.014;2023-06-24T05:26:17;21.30;99.90
38456;DHT22;24237;50.106;20.014;2023-06-24T05:28:43;21.40;99.90
38456;DHT22;24237;50.106;20.014;2023-06-24T05:31:09;21.30;99.90
38456;DHT22;24237;50.106;20.014;2023-06-24T05:33:34;21.30;99.90
38456;DHT22;24237;50.106;20.014;2023-06-24T05:36:00;21.40;99.90
38456;DHT22;24237;50.106;20.014;2023-06-24T05:38:25;21.40;99.90
38456;DHT22;24237;50.106;20.014;2023-06-24T05:40:51;21.20;99.90
38456;DHT22;24237;50.106;20.014;2023-06-24T05:43:17;21.20;99.90
38456;DHT22;24237;50.106;20.014;2023-06-24T05:45:42;21.40;99.90
38456;DHT22;24237;50.106;20.014;2023-06-24T05:48:08;21.30;99.90
38456;DHT22;24237;50.106;20.014;2023-06-24T05:50:34;21.30;99.90
38456;DHT22;24237;50.106;20.014;2023-06-24T05:53:00;21.10;99.90
38456;DHT22;24237;50.106;20.014;2023-06-24T05:55:25;21.10;99.90
38456;DHT22;24237;50.106;20.014;2023-06-24T05:57:51;21.00;99.90
38456;DHT22;24237;50.106;20.014;2023-06-24T06:00:17;21.00;99.90
38456;DHT22;24237;50.106;20.014;2023-06-24T06:02:43;21.00;99.90
38456;DHT22;24237;50.106;20.014;2023-06-24T06:05:09;21.00;99.90
38456;DHT22;24237;50.106;20.014;2023-06-24T06:07:34;21.00;99.90
38456;DHT22;24237;50.106;20.014;2023-06-24T06:10:03;21.10;99.90
38456;DHT22;24237;50.106;20.014;2023-06-24T06:12:28;21.30;99.90
38456;DHT22;24237;50.106;20.014;2023-06-24T06:14:54;21.50;99.90
38456;DHT22;24237;50.106;20.014;2023-06-24T06:17:19;21.30;99.90
38456;DHT22;24237;50.106;20.014;2023-06-24T06:19:45;21.40;99.90
38456;DHT22;24237;50.106;20.014;2023-06-24T06:22:12;21.40;99.90
38456;DHT22;24237;50.106;20.014;2023-06-24T06:24:39;21.70;99.90
38456;DHT22;24237;50.106;20.014;2023-06-24T06:27:09;21.60;99.90
38456;DHT22;24237;50.106;20.014;2023-06-24T06:29:34;21.60;99.90
38456;DHT22;24237;50.106;20.014;2023-06-24T06:32:00;21.50;99.90
38456;DHT22;24237;50.106;20.014;2023-06-24T06:34:26;21.30;99.90
38456;DHT22;24237;50.106;20.014;2023-06-24T06:36:52;21.50;99.90
38456;DHT22;24237;50.106;20.014;2023-06-24T06:39:17;21.50;99.90
38456;DHT22;24237;50.106;20.014;2023-06-24T06:41:43;21.40;99.90
38456;DHT22;24237;50.106;20.014;2023-06-24T06:44:08;21.40;99.90
38456;DHT22;24237;50.106;20.014;2023-06-24T06:46:34;21.50;99.90
38456;DHT22;24237;50.106;20.014;2023-06-24T06:48:59;21.60;99.90
38456;DHT22;24237;50.106;20.014;2023-06-24T06:51:25;21.60;99.90
38456;DHT22;24237;50.106;20.014;2023-06-24T06:53:51;21.60;99.90
38456;DHT22;24237;50.106;20.014;2023-06-24T06:56:18;21.40;99.90
38456;DHT22;24237;50.106;20.014;2023-06-24T06:58:44;21.40;99.90
38456;DHT22;24237;50.106;20.014;2023-06-24T07:01:09;21.40;99.90
38456;DHT22;24237;50.106;20.014;2023-06-24T07:03:35;21.50;99.90
38456;DHT22;24237;50.106;20.014;2023-06-24T07:06:00;21.40;99.90
38456;DHT22;24237;50.106;20.014;2023-06-24T07:08:26;21.30;99.90
38456;DHT22;24237;50.106;20.014;2023-06-24T07:10:53;21.30;99.90
38456;DHT22;24237;50.106;20.014;2023-06-24T07:13:18;21.00;99.90
38456;DHT22;24237;50.106;20.014;2023-06-24T07:15:44;20.50;99.90
38456;DHT22;24237;50.106;20.014;2023-06-24T07:18:10;20.20;99.90
38456;DHT22;24237;50.106;20.014;2023-06-24T07:20:35;20.20;99.90
38456;DHT22;24237;50.106;20.014;2023-06-24T07:23:01;20.00;99.90
38456;DHT22;24237;50.106;20.014;2023-06-24T07:25:26;20.10;99.90
38456;DHT22;24237;50.106;20.014;2023-06-24T07:27:53;20.30;99.90
38456;DHT22;24237;50.106;20.014;2023-06-24T07:30:19;20.50;99.90
38456;DHT22;24237;50.106;20.014;2023-06-24T07:32:44;20.50;99.90
38456;DHT22;24237;50.106;20.014;2023-06-24T07:35:10;20.50;99.90
38456;DHT22;24237;50.106;20.014;2023-06-24T07:37:36;20.50;99.90
38456;DHT22;24237;50.106;20.014;2023-06-24T07:40:02;20.50;99.90
38456;DHT22;24237;50.106;20.014;2023-06-24T07:42:29;20.50;99.90
38456;DHT22;24237;50.106;20.014;2023-06-24T07:44:54;20.50;99.90
38456;DHT22;24237;50.106;20.014;2023-06-24T07:47:20;20.50;99.90
38456;DHT22;24237;50.106;20.014;2023-06-24T07:49:46;20.50;99.90
38456;DHT22;24237;50.106;20.014;2023-06-24T07:52:11;20.50;99.90
38456;DHT22;24237;50.106;20.014;2023-06-24T07:54:37;20.60;99.90
38456;DHT22;24237;50.106;20.014;2023-06-24T07:57:03;20.80;99.90
38456;DHT22;24237;50.106;20.014;2023-06-24T07:59:29;21.00;99.90
38456;DHT22;24237;50.106;20.014;2023-06-24T08:01:54;20.90;99.90
38456;DHT22;24237;50.106;20.014;2023-06-24T08:04:20;20.80;99.90
38456;DHT22;24237;50.106;20.014;2023-06-24T08:06:45;20.90;99.90
38456;DHT22;24237;50.106;20.014;2023-06-24T08:09:11;20.80;99.90
38456;DHT22;24237;50.106;20.014;2023-06-24T08:11:37;20.70;99.90
38456;DHT22;24237;50.106;20.014;2023-06-24T08:14:02;20.80;99.90
38456;DHT22;24237;50.106;20.014;2023-06-24T08:16:29;20.90;99.90
38456;DHT22;24237;50.106;20.014;2023-06-24T08:18:55;21.00;99.90
38456;DHT22;24237;50.106;20.014;2023-06-24T08:21:20;21.30;99.90
38456;DHT22;24237;50.106;20.014;2023-06-24T08:23:46;21.40;99.90
38456;DHT22;24237;50.106;20.014;2023-06-24T08:26:13;21.10;99.90
38456;DHT22;24237;50.106;20.014;2023-06-24T08:28:39;21.10;99.90
38456;DHT22;24237;50.106;20.014;2023-06-24T08:31:04;21.30;99.90
38456;DHT22;24237;50.106;20.014;2023-06-24T08:33:30;21.30;99.90
38456;DHT22;24237;50.106;20.014;2023-06-24T08:35:55;21.20;99.90
38456;DHT22;24237;50.106;20.014;2023-06-24T08:38:21;20.90;99.90
38456;DHT22;24237;50.106;20.014;2023-06-24T08:40:50;20.90;99.90
38456;DHT22;24237;50.106;20.014;2023-06-24T08:43:16;20.90;99.90
38456;DHT22;24237;50.106;20.014;2023-06-24T08:45:42;20.70;99.90
38456;DHT22;24237;50.106;20.014;2023-06-24T08:48:08;20.70;99.90
38456;DHT22;24237;50.106;20.014;2023-06-24T08:50:43;20.80;99.90
38456;DHT22;24237;50.106;20.014;2023-06-24T08:53:09;20.90;99.90
38456;DHT22;24237;50.106;20.014;2023-06-24T08:55:45;21.00;99.90
38456;DHT22;24237;50.106;20.014;2023-06-24T08:58:12;20.90;99.90
38456;DHT22;24237;50.106;20.014;2023-06-24T09:00:38;20.80;99.90
38456;DHT22;24237;50.106;20.014;2023-06-24T09:03:03;21.00;99.90
38456;DHT22;24237;50.106;20.014;2023-06-24T09:05:29;21.10;99.90
38456;DHT22;24237;50.106;20.014;2023-06-24T09:07:54;20.90;99.90
38456;DHT22;24237;50.106;20.014;2023-06-24T09:10:37;21.00;99.90
38456;DHT22;24237;50.106;20.014;2023-06-24T09:13:04;21.20;99.90
38456;DHT22;24237;50.106;20.014;2023-06-24T09:15:31;21.00;99.90
38456;DHT22;24237;50.106;20.014;2023-06-24T09:17:57;21.00;99.90
38456;DHT22;24237;50.106;20.014;2023-06-24T09:20:22;20.90;99.90
38456;DHT22;24237;50.106;20.014;2023-06-24T09:22:48;21.00;99.90
38456;DHT22;24237;50.106;20.014;2023-06-24T09:25:18;21.00;99.90
38456;DHT22;24237;50.106;20.014;2023-06-24T09:27:48;20.80;99.90
38456;DHT22;24237;50.106;20.014;2023-06-24T09:30:37;20.80;99.90
38456;DHT22;24237;50.106;20.014;2023-06-24T09:33:03;20.90;99.90
38456;DHT22;24237;50.106;20.014;2023-06-24T09:35:35;21.00;99.90
38456;DHT22;24237;50.106;20.014;2023-06-24T09:38:02;21.30;99.90
38456;DHT22;24237;50.106;20.014;2023-06-24T09:40:27;21.10;99.90
38456;DHT22;24237;50.106;20.014;2023-06-24T09:42:57;21.10;99.90
38456;DHT22;24237;50.106;20.014;2023-06-24T09:45:29;21.30;99.90
38456;DHT22;24237;50.106;20.014;2023-06-24T09:47:56;21.20;99.90
38456;DHT22;24237;50.106;20.014;2023-06-24T09:50:23;21.20;99.90
38456;DHT22;24237;50.106;20.014;2023-06-24T09:52:49;21.20;99.90
38456;DHT22;24237;50.106;20.014;2023-06-24T09:55:16;21.20;99.90
38456;DHT22;24237;50.106;20.014;2023-06-24T09:57:45;21.40;99.90
38456;DHT22;24237;50.106;20.014;2023-06-24T10:00:13;21.60;99.90
38456;DHT22;24237;50.106;20.014;2023-06-24T10:02:40;21.80;99.90
38456;DHT22;24237;50.106;20.014;2023-06-24T10:05:07;21.90;99.90
38456;DHT22;24237;50.106;20.014;2023-06-24T10:07:34;22.00;99.90
38456;DHT22;24237;50.106;20.014;2023-06-24T10:10:02;22.20;99.90
38456;DHT22;24237;50.106;20.014;2023-06-24T10:12:28;22.30;99.90
38456;DHT22;24237;50.106;20.014;2023-06-24T10:14:54;22.10;99.90
38456;DHT22;24237;50.106;20.014;2023-06-24T10:17:20;22.40;99.90
38456;DHT22;24237;50.106;20.014;2023-06-24T10:19:45;22.50;99.90
38456;DHT22;24237;50.106;20.014;2023-06-24T10:22:11;22.40;99.90
38456;DHT22;24237;50.106;20.014;2023-06-24T10:24:39;22.70;99.90
38456;DHT22;24237;50.106;20.014;2023-06-24T10:27:16;22.70;99.90
38456;DHT22;24237;50.106;20.014;2023-06-24T10:29:47;22.70;99.90
38456;DHT22;24237;50.106;20.014;2023-06-24T10:32:13;22.30;99.90
38456;DHT22;24237;50.106;20.014;2023-06-24T10:34:41;22.30;99.90
38456;DHT22;24237;50.106;20.014;2023-06-24T10:37:08;22.30;99.90
38456;DHT22;24237;50.106;20.014;2023-06-24T10:39:57;21.90;99.90
38456;DHT22;24237;50.106;20.014;2023-06-24T10:44:50;22.00;99.90
38456;DHT22;24237;50.106;20.014;2023-06-24T10:47:16;21.70;99.90
38456;DHT22;24237;50.106;20.014;2023-06-24T10:49:42;21.60;99.90
38456;DHT22;24237;50.106;20.014;2023-06-24T10:52:11;21.60;99.90
38456;DHT22;24237;50.106;20.014;2023-06-24T10:54:37;21.50;99.90
38456;DHT22;24237;50.106;20.014;2023-06-24T10:57:07;21.80;99.90
38456;DHT22;24237;50.106;20.014;2023-06-24T10:59:42;21.90;99.90
38456;DHT22;24237;50.106;20.014;2023-06-24T11:02:09;21.70;99.90
38456;DHT22;24237;50.106;20.014;2023-06-24T11:04:47;21.50;99.90
38456;DHT22;24237;50.106;20.014;2023-06-24T11:07:14;21.50;99.90
38456;DHT22;24237;50.106;20.014;2023-06-24T11:09:41;21.70;99.90
38456;DHT22;24237;50.106;20.014;2023-06-24T11:12:11;21.90;99.90
38456;DHT22;24237;50.106;20.014;2023-06-24T11:14:38;22.10;99.90
38456;DHT22;24237;50.106;20.014;2023-06-24T11:17:04;22.20;99.90
38456;DHT22;24237;50.106;20.014;2023-06-24T11:19:30;22.20;99.90
38456;DHT22;24237;50.106;20.014;2023-06-24T11:22:00;22.10;99.90
38456;DHT22;24237;50.106;20.014;2023-06-24T11:24:27;22.10;99.90
38456;DHT22;24237;50.106;20.014;2023-06-24T11:26:52;21.90;99.90
38456;DHT22;24237;50.106;20.014;2023-06-24T11:29:18;22.00;99.90
38456;DHT22;24237;50.106;20.014;2023-06-24T11:31:45;22.00;99.90
38456;DHT22;24237;50.106;20.014;2023-06-24T11:34:10;21.70;99.90
38456;DHT22;24237;50.106;20.014;2023-06-24T11:36:36;21.80;99.90
38456;DHT22;24237;50.106;20.014;2023-06-24T11:39:02;21.70;99.90
38456;DHT22;24237;50.106;20.014;2023-06-24T11:41:28;21.80;99.90
38456;DHT22;24237;50.106;20.014;2023-06-24T11:43:54;21.90;99.90
38456;DHT22;24237;50.106;20.014;2023-06-24T11:46:30;22.00;99.90
38456;DHT22;24237;50.106;20.014;2023-06-24T11:49:05;21.80;99.90
38456;DHT22;24237;50.106;20.014;2023-06-24T11:51:32;22.10;99.90
38456;DHT22;24237;50.106;20.014;2023-06-24T11:54:02;22.10;99.90
38456;DHT22;24237;50.106;20.014;2023-06-24T11:56:40;22.10;99.90
38456;DHT22;24237;50.106;20.014;2023-06-24T11:59:15;22.30;99.90
38456;DHT22;24237;50.106;20.014;2023-06-24T12:01:44;22.30;99.90
38456;DHT22;24237;50.106;20.014;2023-06-24T12:04:12;22.30;99.90
38456;DHT22;24237;50.106;20.014;2023-06-24T12:06:42;22.30;99.90
38456;DHT22;24237;50.106;20.014;2023-06-24T12:09:09;22.20;99.90
38456;DHT22;24237;50.106;20.014;2023-06-24T12:11:35;22.00;99.90
38456;DHT22;24237;50.106;20.014;2023-06-24T12:14:01;21.60;99.90
38456;DHT22;24237;50.106;20.014;2023-06-24T12:16:26;21.30;99.90
38456;DHT22;24237;50.106;20.014;2023-06-24T12:18:52;21.10;99.90
38456;DHT22;24237;50.106;20.014;2023-06-24T12:21:19;21.00;99.90
38456;DHT22;24237;50.106;20.014;2023-06-24T12:23:45;20.90;99.90
38456;DHT22;24237;50.106;20.014;2023-06-24T12:26:11;21.00;99.90
38456;DHT22;24237;50.106;20.014;2023-06-24T12:28:37;21.00;99.90
38456;DHT22;24237;50.106;20.014;2023-06-24T12:31:03;21.10;99.90
38456;DHT22;24237;50.106;20.014;2023-06-24T12:33:28;21.20;99.90
38456;DHT22;24237;50.106;20.014;2023-06-24T12:35:54;21.50;99.90
38456;DHT22;24237;50.106;20.014;2023-06-24T12:38:20;21.60;99.90
38456;DHT22;24237;50.106;20.014;2023-06-24T12:40:45;21.90;99.90
38456;DHT22;24237;50.106;20.014;2023-06-24T12:43:11;22.40;99.90
38456;DHT22;24237;50.106;20.014;2023-06-24T12:45:38;22.40;99.90
38456;DHT22;24237;50.106;20.014;2023-06-24T12:48:04;22.20;99.90
38456;DHT22;24237;50.106;20.014;2023-06-24T12:50:29;22.00;99.90
38456;DHT22;24237;50.106;20.014;2023-06-24T12:52:58;21.80;99.90
38456;DHT22;24237;50.106;20.014;2023-06-24T12:55:23;21.70;99.90
38456;DHT22;24237;50.106;20.014;2023-06-24T12:57:49;21.70;99.90
38456;DHT22;24237;50.106;20.014;2023-06-24T13:00:15;21.70;99.90
38456;DHT22;24237;50.106;20.014;2023-06-24T13:02:41;21.50;99.90
38456;DHT22;24237;50.106;20.014;2023-06-24T13:05:07;21.40;99.90
38456;DHT22;24237;50.106;20.014;2023-06-24T13:07:32;21.40;99.90
38456;DHT22;24237;50.106;20.014;2023-06-24T13:09:58;21.10;99.90
38456;DHT22;24237;50.106;20.014;2023-06-24T13:12:24;20.90;99.90
38456;DHT22;24237;50.106;20.014;2023-06-24T13:14:50;20.90;99.90
38456;DHT22;24237;50.106;20.014;2023-06-24T13:17:16;20.70;99.90
38456;DHT22;24237;50.106;20.014;2023-06-24T13:19:41;21.00;99.90
38456;DHT22;24237;50.106;20.014;2023-06-24T13:22:07;20.90;99.90
38456;DHT22;24237;50.106;20.014;2023-06-24T13:24:32;20.60;99.90
38456;DHT22;24237;50.106;20.014;2023-06-24T13:26:58;20.50;99.90
38456;DHT22;24237;50.106;20.014;2023-06-24T13:29:24;20.60;99.90
38456;DHT22;24237;50.106;20.014;2023-06-24T13:31:49;20.50;99.90
38456;DHT22;24237;50.106;20.014;2023-06-24T13:34:15;20.60;99.90
38456;DHT22;24237;50.106;20.014;2023-06-24T13:36:40;20.60;99.90
38456;DHT22;24237;50.106;20.014;2023-06-24T13:39:08;20.70;99.90
38456;DHT22;24237;50.106;20.014;2023-06-24T13:41:34;20.70;99.90
38456;DHT22;24237;50.106;20.014;2023-06-24T13:44:01;20.60;99.90
38456;DHT22;24237;50.106;20.014;2023-06-24T13:46:28;20.90;99.90
38456;DHT22;24237;50.106;20.014;2023-06-24T13:48:54;20.80;99.90
38456;DHT22;24237;50.106;20.014;2023-06-24T13:51:20;20.90;99.90
38456;DHT22;24237;50.106;20.014;2023-06-24T13:53:48;20.80;99.90
38456;DHT22;24237;50.106;20.014;2023-06-24T13:56:14;20.70;99.90
38456;DHT22;24237;50.106;20.014;2023-06-24T13:58:39;20.70;99.90
38456;DHT22;24237;50.106;20.014;2023-06-24T14:01:05;20.60;99.90
38456;DHT22;24237;50.106;20.014;2023-06-24T14:03:30;20.60;99.90
38456;DHT22;24237;50.106;20.014;2023-06-24T14:05:56;20.70;99.90
38456;DHT22;24237;50.106;20.014;2023-06-24T14:08:22;20.80;99.90
38456;DHT22;24237;50.106;20.014;2023-06-24T14:10:49;20.70;99.90
38456;DHT22;24237;50.106;20.014;2023-06-24T14:13:14;20.60;99.90
38456;DHT22;24237;50.106;20.014;2023-06-24T14:15:40;20.60;99.90
38456;DHT22;24237;50.106;20.014;2023-06-24T14:18:06;20.70;99.90
38456;DHT22;24237;50.106;20.014;2023-06-24T14:20:32;20.60;99.90
38456;DHT22;24237;50.106;20.014;2023-06-24T14:22:57;20.50;99.90
38456;DHT22;24237;50.106;20.014;2023-06-24T14:25:23;20.40;99.90
38456;DHT22;24237;50.106;20.014;2023-06-24T14:27:49;20.50;99.90
38456;DHT22;24237;50.106;20.014;2023-06-24T14:30:15;20.30;99.90
38456;DHT22;24237;50.106;20.014;2023-06-24T14:32:41;20.20;99.90
38456;DHT22;24237;50.106;20.014;2023-06-24T14:35:07;20.00;99.90
38456;DHT22;24237;50.106;20.014;2023-06-24T14:37:33;19.80;99.90
38456;DHT22;24237;50.106;20.014;2023-06-24T14:39:58;20.00;99.90
38456;DHT22;24237;50.106;20.014;2023-06-24T14:42:24;19.90;99.90
38456;DHT22;24237;50.106;20.014;2023-06-24T14:44:49;19.50;99.90
38456;DHT22;24237;50.106;20.014;2023-06-24T14:47:15;19.30;99.90
38456;DHT22;24237;50.106;20.014;2023-06-24T15:41:40;16.70;99.90
38456;DHT22;24237;50.106;20.014;2023-06-24T15:46:17;17.50;99.90
38456;DHT22;24237;50.106;20.014;2023-06-24T15:48:42;18.30;99.90
38456;DHT22;24237;50.106;20.014;2023-06-24T15:51:08;18.70;99.90
38456;DHT22;24237;50.106;20.014;2023-06-24T15:53:33;18.90;99.90
38456;DHT22;24237;50.106;20.014;2023-06-24T15:55:59;19.20;99.90
38456;DHT22;24237;50.106;20.014;2023-06-24T15:58:25;19.40;99.90
38456;DHT22;24237;50.106;20.014;2023-06-24T16:00:50;19.70;99.90
38456;DHT22;24237;50.106;20.014;2023-06-24T16:03:16;19.90;99.90
38456;DHT22;24237;50.106;20.014;2023-06-24T16:05:43;19.70;99.90
38456;DHT22;24237;50.106;20.014;2023-06-24T16:08:09;19.80;99.90
38456;DHT22;24237;50.106;20.014;2023-06-24T16:10:34;19.90;99.90
38456;DHT22;24237;50.106;20.014;2023-06-24T16:13:00;19.70;99.90
38456;DHT22;24237;50.106;20.014;2023-06-24T16:15:25;19.90;99.90
38456;DHT22;24237;50.106;20.014;2023-06-24T16:17:51;19.70;99.90
38456;DHT22;24237;50.106;20.014;2023-06-24T16:20:16;19.30;99.90